Skip Navigation Links
NOAA logo - Click to go to the NOAA homepage
NOAA's National Weather Service
Alaska Aviation Weather Unit
  NWS logo - Click to go to the NWS homepage
Left Navbar Graphic     22 AKDT = 06 GMT

   
NOAA is celebrating 200 years of science, service, and stewardship. Visit the NOAA 200th celebration Web site to learn more.
USA.gov is the U.S. Government's official Web portal to all Federal, state and local government Web resources and services.
Facebook
NWS on Facebook

Important Change Regarding the AAWU Web Presence

 

Over the last several months, the AAWU has been working to navigate its webpages to a nationally supported server. Security, as well as other needs, have necessitated the change.  In the process, we have made an effort to enhance the functionality of our website, as well as some of our products. As of June 20, 2017, aawu.arh.noaa.gov will be discontinued. The new AAWU web address is weather.gov/aawu. It is now live and will run in-parallel with the old site until it is discontinued. Please send any feedback or questions regarding the new webpages to nws.ar.aawu.webauthors@noaa.gov.  Thank you for your patience during this time of transition.
AAWU Home :: Display TAF Add Bookmark
TAF PAUN 280537Z 2806/2906 VRB05KT P6SM SCT025 OVC050
      TEMPO 2806/2808 -SHRA BKN025 OVC035
     FM280800 10006KT P6SM SCT035 BKN080
     FM281200 08005KT P6SM SCT100=
METAR PAUN 280056Z AUTO 35004KT 10SM -RA FEW028 BKN039 OVC080 07/03
 A2994 RMK AO2 RAE01B40 SLP143 P0000 T00670033=

METAR PAUN 280156Z AUTO 25006KT 10SM -RA SCT029 BKN037 OVC065 07/03
 A2994 RMK AO2 RAE0058B22 SLP144 P0001 T00670028=

METAR PAUN 280256Z AUTO 32007KT 10SM CLR 07/03 A2993 RMK AO2 RAE02
 SLP140 P0000 60001 T00670028 58002=

METAR PAUN 280356Z AUTO 31009KT 10SM CLR 08/03 A2992 RMK AO2 SLP136
     T00830033=

METAR PAUN 280456Z AUTO 28003KT 7SM RA SCT026 OVC033 06/03 A2995 RMK
 AO2 RAB44 SLP145 P0003 T00560028=

PAUN 280503Z AUTO 00000KT 7SM -RA BKN026 OVC033 06/03 A2995 RMK
     AO2 P0002=

SPECI PAUN 280525Z AUTO 02003KT 10SM -RA SCT027 BKN034 OVC060 06/03
     A2993 RMK AO2 P0002=

METAR PAUN 280556Z AUTO 00000KT 10SM FEW065 07/03 A2994 RMK AO2
 RAE36 SLP141 P0003 60007 T00670028 10083 20056 50001=


NOAA's National Weather Service
Alaska Aviation Weather Unit
6930 Sand Lake Road
Anchorage, AK 99502-1845
Disclaimer
Credits
Glossary
Privacy Policy
About Us
Career Opportunities
Contact AAWU Internet Services Site last modified: April, 17th 2012